createdAt,value
2023-01-18T00:00:34.713Z,82.51
2023-01-18T00:03:02.539Z,82.69
2023-01-18T00:05:30.537Z,82.71
2023-01-18T00:07:58.428Z,82.81
2023-01-18T00:10:27.815Z,83.15
2023-01-18T00:12:56.410Z,83.32
2023-01-18T00:15:24.392Z,83.71
2023-01-18T00:17:52.606Z,83.63
2023-01-18T00:20:22.867Z,83.75
2023-01-18T00:22:51.691Z,83.57
2023-01-18T00:25:20.439Z,83.72
2023-01-18T00:27:51.388Z,83.67
2023-01-18T00:30:21.677Z,84.03
2023-01-18T00:32:49.963Z,83.68
2023-01-18T00:35:22.138Z,84.09
2023-01-18T00:37:51.619Z,83.95
2023-01-18T00:40:20.535Z,84.12
2023-01-18T00:43:07.477Z,84.09
2023-01-18T00:45:35.650Z,84.28
2023-01-18T00:48:03.657Z,84.12
2023-01-18T00:50:31.671Z,84.21
2023-01-18T00:53:00.132Z,84.32
2023-01-18T00:55:28.549Z,83.75
2023-01-18T00:57:57.783Z,84.14
2023-01-18T01:00:27.151Z,84.27
2023-01-18T01:02:56.515Z,83.74
2023-01-18T01:05:44.065Z,84.28
2023-01-18T01:08:17.428Z,84.51
2023-01-18T01:10:46.419Z,84.33
2023-01-18T01:13:35.324Z,84.58
2023-01-18T01:16:24.305Z,84.28
2023-01-18T01:19:10.549Z,84.12
2023-01-18T01:21:56.323Z,83.94
2023-01-18T01:24:42.213Z,83.70
2023-01-18T01:27:11.308Z,83.37
2023-01-18T01:29:40.574Z,83.71
2023-01-18T01:32:08.613Z,83.34
2023-01-18T01:34:36.684Z,83.07
2023-01-18T01:37:04.658Z,83.29
2023-01-18T01:39:32.500Z,83.21
2023-01-18T01:42:00.329Z,83.19
2023-01-18T01:44:51.768Z,83.22
2023-01-18T01:47:31.649Z,83.09
2023-01-18T01:50:03.305Z,83.07
2023-01-18T01:52:37.440Z,83.07
2023-01-18T01:55:12.185Z,82.82
2023-01-18T01:57:44.936Z,82.72
2023-01-18T02:00:17.024Z,82.96
2023-01-18T02:02:48.038Z,83.21
2023-01-18T02:05:18.103Z,83.74
2023-01-18T02:07:46.632Z,84.10
2023-01-18T02:10:15.070Z,83.51
2023-01-18T02:12:45.645Z,83.64
2023-01-18T02:15:15.256Z,84.01
2023-01-18T02:18:08.004Z,83.97
2023-01-18T02:21:09.234Z,84.35
2023-01-18T02:24:11.064Z,85.11
2023-01-18T02:26:53.579Z,84.76
2023-01-18T02:29:33.595Z,84.76
2023-01-18T02:32:15.046Z,85.20
2023-01-18T02:34:49.980Z,84.97
2023-01-18T02:37:27.203Z,84.98
2023-01-18T02:40:07.039Z,85.01
2023-01-18T02:42:55.896Z,84.62
2023-01-18T02:45:50.170Z,85.01
2023-01-18T02:48:20.457Z,84.61
2023-01-18T02:50:48.389Z,84.33
2023-01-18T02:53:17.376Z,85.21
2023-01-18T02:55:51.740Z,85.02
2023-01-18T02:58:25.696Z,84.68
2023-01-18T03:01:00.978Z,84.55
2023-01-18T03:03:29.207Z,84.68
2023-01-18T03:06:01.685Z,84.59
2023-01-18T03:08:36.266Z,84.14
2023-01-18T03:11:10.152Z,83.95
2023-01-18T03:13:55.198Z,84.47
2023-01-18T03:16:26.005Z,84.33
2023-01-18T03:19:03.132Z,84.27
2023-01-18T03:21:38.696Z,84.42
2023-01-18T03:24:07.871Z,84.44
2023-01-18T03:26:40.680Z,83.82
2023-01-18T03:29:26.169Z,83.95
2023-01-18T03:32:17.757Z,84.07
2023-01-18T03:34:51.383Z,84.37
2023-01-18T03:37:23.910Z,84.33
2023-01-18T03:39:54.807Z,84.33
2023-01-18T03:42:27.136Z,85.17
2023-01-18T03:45:00.581Z,84.93
2023-01-18T03:47:30.367Z,85.42
2023-01-18T03:49:58.545Z,85.58
2023-01-18T03:52:32.353Z,85.69
2023-01-18T03:55:06.291Z,85.85
2023-01-18T03:57:39.520Z,84.93
2023-01-18T04:00:10.835Z,85.03
2023-01-18T04:02:44.712Z,85.08
2023-01-18T04:05:13.035Z,85.15
2023-01-18T04:07:40.986Z,84.83
2023-01-18T04:10:10.345Z,85.43
2023-01-18T04:12:38.300Z,85.84
2023-01-18T04:15:07.228Z,86.25
2023-01-18T04:17:35.041Z,86.54
2023-01-18T04:20:04.886Z,86.50
2023-01-18T04:22:32.849Z,86.55
2023-01-18T04:25:00.777Z,86.73
2023-01-18T04:27:28.707Z,86.91
2023-01-18T04:29:58.531Z,86.40
2023-01-18T04:32:26.422Z,86.41
2023-01-18T04:34:54.554Z,86.15
2023-01-18T04:37:31.948Z,87.01
2023-01-18T04:39:59.764Z,86.65
2023-01-18T04:42:27.776Z,87.05
2023-01-18T04:44:55.667Z,87.12
2023-01-18T04:47:23.736Z,86.76
2023-01-18T04:49:51.572Z,87.35
2023-01-18T04:52:19.486Z,87.54
2023-01-18T04:54:48.731Z,87.42
2023-01-18T04:57:16.675Z,87.64
2023-01-18T04:59:46.046Z,87.44
2023-01-18T05:02:15.990Z,87.70
2023-01-18T05:04:45.030Z,88.11
2023-01-18T05:07:13.163Z,88.46
2023-01-18T05:09:41.148Z,88.55
2023-01-18T05:12:10.441Z,88.80
2023-01-18T05:14:38.309Z,88.37
2023-01-18T05:17:07.305Z,88.23
2023-01-18T05:19:35.287Z,88.20
2023-01-18T05:22:04.510Z,88.04
2023-01-18T05:24:32.598Z,87.68
2023-01-18T05:27:00.565Z,87.99
2023-01-18T05:29:29.823Z,87.88
2023-01-18T05:31:57.713Z,87.89
2023-01-18T05:34:27.196Z,87.36
2023-01-18T05:36:55.017Z,87.23
2023-01-18T05:39:23.546Z,87.02
2023-01-18T05:41:51.496Z,87.18
2023-01-18T05:44:19.354Z,86.77
2023-01-18T05:46:48.643Z,86.61
2023-01-18T05:49:16.778Z,86.49
2023-01-18T05:51:44.745Z,86.17
2023-01-18T05:54:13.326Z,86.15
2023-01-18T05:56:42.140Z,86.14
2023-01-18T05:59:10.220Z,86.91
2023-01-18T06:01:38.241Z,86.63
2023-01-18T06:04:07.650Z,86.24
2023-01-18T06:06:35.496Z,86.57
2023-01-18T06:09:03.826Z,86.55
2023-01-18T06:11:32.051Z,86.45
2023-01-18T06:14:00.100Z,86.09
2023-01-18T06:16:28.101Z,86.20
2023-01-18T06:18:56.043Z,86.12
2023-01-18T06:21:25.337Z,85.75
2023-01-18T06:23:53.261Z,85.84
2023-01-18T06:26:21.177Z,85.72
2023-01-18T06:28:49.046Z,85.55
2023-01-18T06:31:17.014Z,86.07
2023-01-18T06:33:45.430Z,85.72
2023-01-18T06:36:13.358Z,85.60
2023-01-18T06:38:42.769Z,85.47
2023-01-18T06:41:10.895Z,85.76
2023-01-18T06:43:38.830Z,85.51
2023-01-18T06:46:08.276Z,85.50
2023-01-18T06:48:36.460Z,85.58
2023-01-18T06:51:04.592Z,85.64
2023-01-18T06:53:32.493Z,85.84
2023-01-18T06:56:02.705Z,85.05
2023-01-18T06:58:32.847Z,84.96
2023-01-18T07:01:01.781Z,85.53
2023-01-18T07:03:30.961Z,85.98
2023-01-18T07:06:01.385Z,85.95
2023-01-18T07:08:31.370Z,85.70
2023-01-18T07:11:04.739Z,85.27
2023-01-18T07:13:32.689Z,85.94
2023-01-18T07:16:02.067Z,85.93
2023-01-18T07:18:31.209Z,85.30
2023-01-18T07:21:00.916Z,85.66
2023-01-18T07:23:29.397Z,85.40
2023-01-18T07:26:03.454Z,85.26
2023-01-18T07:28:32.119Z,85.62
2023-01-18T07:31:00.487Z,85.44
2023-01-18T07:33:28.969Z,85.69
2023-01-18T07:35:58.733Z,85.41
2023-01-18T07:38:27.237Z,85.36
2023-01-18T07:41:02.211Z,85.64
2023-01-18T07:43:33.376Z,85.40
2023-01-18T07:46:04.179Z,85.61
2023-01-18T07:48:32.808Z,85.11
2023-01-18T07:51:02.831Z,85.24
2023-01-18T07:53:31.767Z,84.88
2023-01-18T07:56:00.977Z,84.88
2023-01-18T07:58:29.479Z,84.57
2023-01-18T08:01:03.264Z,84.07
2023-01-18T08:03:31.207Z,83.93
2023-01-18T08:05:59.860Z,84.09
2023-01-18T08:08:28.731Z,83.76
2023-01-18T08:10:57.433Z,83.79
2023-01-18T08:13:26.963Z,83.88
2023-01-18T08:15:55.433Z,83.73
2023-01-18T08:18:24.738Z,83.24
2023-01-18T08:20:55.038Z,83.04
2023-01-18T08:23:23.606Z,82.92
2023-01-18T08:25:51.916Z,83.17
2023-01-18T08:28:20.696Z,83.84
2023-01-18T08:30:49.704Z,83.39
2023-01-18T08:33:17.896Z,83.38
2023-01-18T08:35:48.725Z,83.60
2023-01-18T08:38:17.504Z,83.85
2023-01-18T08:40:45.428Z,83.74
2023-01-18T08:43:13.361Z,83.65
2023-01-18T08:45:41.443Z,83.78
2023-01-18T08:48:11.715Z,84.06
2023-01-18T08:50:40.152Z,84.21
2023-01-18T08:53:09.342Z,83.86
2023-01-18T08:55:38.287Z,84.32
2023-01-18T08:58:06.144Z,84.44
2023-01-18T09:00:34.270Z,83.50
2023-01-18T09:03:02.834Z,83.94
2023-01-18T09:05:31.054Z,83.63
2023-01-18T09:07:59.043Z,83.04
2023-01-18T09:10:28.381Z,83.31
2023-01-18T09:12:56.609Z,83.22
2023-01-18T09:15:24.690Z,82.57
2023-01-18T09:17:52.460Z,83.18
2023-01-18T09:20:20.445Z,83.14
2023-01-18T09:22:48.857Z,82.91
2023-01-18T09:25:18.397Z,82.85
2023-01-18T09:27:47.804Z,82.63
2023-01-18T09:30:17.119Z,82.78
2023-01-18T09:32:45.021Z,83.02
2023-01-18T09:35:17.982Z,83.23
2023-01-18T09:37:46.292Z,83.44
2023-01-18T09:40:19.718Z,82.79
2023-01-18T09:42:51.435Z,83.19
2023-01-18T09:45:29.473Z,83.27
2023-01-18T09:48:03.451Z,82.84
2023-01-18T09:50:35.731Z,82.98
2023-01-18T09:53:19.062Z,83.08
2023-01-18T09:55:54.089Z,83.78
2023-01-18T09:58:48.109Z,83.43
2023-01-18T10:01:21.020Z,84.03
2023-01-18T10:03:54.644Z,83.26
2023-01-18T10:06:28.147Z,83.43
2023-01-18T10:09:00.230Z,83.85
2023-01-18T10:11:34.491Z,83.41
2023-01-18T10:14:08.916Z,83.69
2023-01-18T10:16:38.792Z,83.53
2023-01-18T10:19:16.003Z,83.83
2023-01-18T10:21:52.360Z,83.12
2023-01-18T10:24:30.888Z,83.70
2023-01-18T10:27:11.649Z,83.31
2023-01-18T10:29:58.432Z,83.14
2023-01-18T10:32:29.053Z,83.45
2023-01-18T10:34:58.700Z,83.28
2023-01-18T10:37:35.672Z,83.79
2023-01-18T10:40:06.078Z,83.48
2023-01-18T10:42:40.799Z,83.98
2023-01-18T10:45:19.233Z,84.02
2023-01-18T10:47:47.530Z,83.98
2023-01-18T10:50:17.796Z,83.74
2023-01-18T10:52:45.717Z,83.99
2023-01-18T10:55:17.594Z,83.20
2023-01-18T10:57:48.756Z,83.38
2023-01-18T11:00:26.533Z,83.61
2023-01-18T11:02:57.123Z,82.63
2023-01-18T11:05:30.810Z,82.98
2023-01-18T11:08:12.651Z,83.05
2023-01-18T11:10:41.459Z,82.31
2023-01-18T11:13:27.689Z,82.87
2023-01-18T11:16:10.400Z,82.52
2023-01-18T11:18:38.359Z,83.03
2023-01-18T11:21:12.151Z,83.26
2023-01-18T11:23:43.696Z,82.91
2023-01-18T11:26:15.470Z,83.21
2023-01-18T11:28:49.510Z,83.60
2023-01-18T11:31:22.364Z,83.66
2023-01-18T11:33:52.959Z,82.82
2023-01-18T11:36:34.029Z,83.00
2023-01-18T11:39:27.222Z,82.69
2023-01-18T11:42:14.920Z,82.54
2023-01-18T11:44:48.283Z,82.41
2023-01-18T11:47:22.706Z,82.28
2023-01-18T11:50:01.003Z,82.24
2023-01-18T11:52:43.193Z,82.44
2023-01-18T11:55:22.357Z,81.88
2023-01-18T11:57:50.816Z,82.42
2023-01-18T12:00:24.403Z,81.54
2023-01-18T12:03:25.839Z,81.43
2023-01-18T12:05:58.998Z,82.12
2023-01-18T12:08:55.010Z,81.59
2023-01-18T12:11:35.338Z,81.05
2023-01-18T12:14:13.531Z,80.84
2023-01-18T12:17:05.927Z,81.53
2023-01-18T12:19:54.380Z,81.69
2023-01-18T12:22:58.835Z,81.09
2023-01-18T12:25:41.754Z,81.33
2023-01-18T12:28:20.866Z,81.27
2023-01-18T12:30:59.296Z,81.06
2023-01-18T12:33:43.772Z,81.08
2023-01-18T12:36:29.943Z,81.06
2023-01-18T12:38:58.248Z,81.24
2023-01-18T12:41:48.621Z,81.25
2023-01-18T12:44:46.221Z,81.02
2023-01-18T12:47:34.935Z,81.24
2023-01-18T12:50:08.698Z,80.98
2023-01-18T12:52:46.037Z,81.31
2023-01-18T12:55:21.313Z,81.40
2023-01-18T12:57:52.153Z,80.99
2023-01-18T13:00:25.831Z,81.49
2023-01-18T13:02:57.985Z,81.18
2023-01-18T13:05:35.083Z,80.80
2023-01-18T13:08:11.016Z,80.98
2023-01-18T13:10:39.672Z,81.02
2023-01-18T13:13:08.733Z,81.34
2023-01-18T13:15:45.893Z,81.50
2023-01-18T13:18:21.853Z,81.33
2023-01-18T13:21:02.588Z,80.55
2023-01-18T13:23:39.746Z,80.89
2023-01-18T13:26:22.035Z,79.94
2023-01-18T13:29:06.246Z,79.78
2023-01-18T13:31:34.748Z,80.02
2023-01-18T13:34:03.397Z,80.71
2023-01-18T13:36:44.776Z,80.39
2023-01-18T13:39:16.608Z,79.65
2023-01-18T13:42:10.726Z,79.76
2023-01-18T13:44:40.874Z,79.91
2023-01-18T13:47:42.807Z,79.58
2023-01-18T13:50:42.269Z,79.16
2023-01-18T13:53:21.093Z,78.83
2023-01-18T13:56:10.317Z,79.15
2023-01-18T13:58:38.709Z,79.05
2023-01-18T14:01:09.047Z,78.41
2023-01-18T14:03:41.841Z,77.96
2023-01-18T14:06:29.179Z,77.96
2023-01-18T14:09:04.427Z,78.04
2023-01-18T14:11:37.830Z,77.35
2023-01-18T14:14:24.817Z,76.99
2023-01-18T14:16:59.868Z,76.93
2023-01-18T14:19:29.955Z,76.81
2023-01-18T14:22:13.734Z,76.69
2023-01-18T14:25:02.440Z,76.02
2023-01-18T14:27:38.712Z,76.92
2023-01-18T14:30:12.817Z,76.60
2023-01-18T14:32:45.952Z,76.37
2023-01-18T14:35:19.736Z,77.20
2023-01-18T14:37:47.892Z,76.86
2023-01-18T14:40:19.696Z,77.54
2023-01-18T14:42:53.177Z,78.07
2023-01-18T14:45:27.119Z,77.65
2023-01-18T14:47:56.996Z,77.99
2023-01-18T14:50:27.024Z,78.49
2023-01-18T14:52:55.175Z,79.03
2023-01-18T14:55:29.944Z,78.24
2023-01-18T14:58:13.441Z,79.13
2023-01-18T15:00:49.525Z,79.44
2023-01-18T15:03:24.311Z,79.70
2023-01-18T15:05:59.924Z,79.11
2023-01-18T15:08:29.413Z,79.29
2023-01-18T15:10:57.983Z,80.26
2023-01-18T15:13:27.576Z,79.69
2023-01-18T15:15:58.762Z,80.32
2023-01-18T15:18:29.531Z,79.69
2023-01-18T15:20:59.292Z,80.08
2023-01-18T15:23:29.323Z,80.91
2023-01-18T15:25:58.855Z,79.96
2023-01-18T15:28:35.001Z,81.04
2023-01-18T15:31:12.468Z,80.96
2023-01-18T15:33:41.544Z,80.30
2023-01-18T15:36:10.689Z,80.20
2023-01-18T15:38:39.793Z,80.39
2023-01-18T15:41:12.027Z,80.69
2023-01-18T15:43:43.470Z,80.89
2023-01-18T15:46:14.037Z,80.65
2023-01-18T15:48:49.895Z,80.91
2023-01-18T15:51:18.263Z,80.83
2023-01-18T15:53:52.434Z,80.83
2023-01-18T15:56:24.838Z,80.87
2023-01-18T15:58:56.328Z,81.00
2023-01-18T16:01:28.053Z,81.01
2023-01-18T16:03:59.620Z,81.62
2023-01-18T16:06:33.373Z,81.01
2023-01-18T16:09:10.335Z,81.38
2023-01-18T16:11:45.741Z,82.08
2023-01-18T16:14:24.609Z,82.31
2023-01-18T16:16:54.153Z,81.93
2023-01-18T16:19:28.347Z,82.50
2023-01-18T16:21:59.656Z,82.40
2023-01-18T16:24:31.718Z,82.51
2023-01-18T16:27:01.852Z,82.22
2023-01-18T16:29:39.741Z,82.29
2023-01-18T16:32:29.861Z,82.06
2023-01-18T16:34:59.755Z,82.07
2023-01-18T16:37:27.964Z,82.13
2023-01-18T16:39:55.837Z,82.31
2023-01-18T16:42:37.023Z,82.06
2023-01-18T16:45:14.522Z,82.71
2023-01-18T16:47:42.675Z,82.88
2023-01-18T16:50:15.354Z,83.14
2023-01-18T16:52:43.307Z,83.46
2023-01-18T16:55:13.564Z,83.64
2023-01-18T16:57:42.043Z,84.08
2023-01-18T17:00:18.186Z,84.07
2023-01-18T17:02:48.495Z,84.09
2023-01-18T17:05:17.065Z,84.19
2023-01-18T17:07:45.259Z,84.08
2023-01-18T17:10:21.479Z,84.00
2023-01-18T17:12:49.404Z,84.25
2023-01-18T17:15:20.108Z,84.41
2023-01-18T17:17:48.097Z,84.27
2023-01-18T17:20:18.713Z,84.04
2023-01-18T17:22:46.918Z,84.10
2023-01-18T17:25:15.349Z,84.30
2023-01-18T17:27:43.328Z,84.22
2023-01-18T17:30:13.616Z,84.33
2023-01-18T17:32:43.127Z,84.61
2023-01-18T17:35:11.996Z,84.66
2023-01-18T17:37:39.895Z,84.71
2023-01-18T17:40:17.094Z,84.78
2023-01-18T17:42:51.848Z,84.13
2023-01-18T17:45:19.958Z,83.48
2023-01-18T17:47:49.260Z,82.85
2023-01-18T17:50:22.991Z,82.58
2023-01-18T17:52:50.894Z,82.54
2023-01-18T17:55:27.224Z,82.75
2023-01-18T17:57:58.592Z,82.33
2023-01-18T18:00:26.671Z,82.79
2023-01-18T18:02:57.338Z,82.37
2023-01-18T18:05:25.352Z,82.55
2023-01-18T18:07:53.274Z,82.23
2023-01-18T18:10:21.368Z,82.33
2023-01-18T18:12:49.297Z,82.87
2023-01-18T18:15:17.277Z,82.67
2023-01-18T18:17:45.157Z,82.97
2023-01-18T18:20:14.720Z,82.81
2023-01-18T18:22:42.635Z,82.70
2023-01-18T18:25:11.015Z,82.99
2023-01-18T18:27:47.342Z,83.08
2023-01-18T18:30:16.707Z,83.46
2023-01-18T18:32:44.687Z,83.69
2023-01-18T18:35:25.079Z,83.91
2023-01-18T18:37:55.442Z,83.89
2023-01-18T18:40:23.824Z,84.28
2023-01-18T18:43:02.043Z,84.31
2023-01-18T18:45:31.801Z,84.28
2023-01-18T18:47:59.956Z,84.15
2023-01-18T18:50:30.174Z,83.53
2023-01-18T18:52:58.905Z,83.00
2023-01-18T18:55:27.132Z,83.15
2023-01-18T18:57:54.994Z,82.81
2023-01-18T19:00:24.479Z,83.05
2023-01-18T19:02:52.463Z,82.53
2023-01-18T19:05:20.380Z,81.76
2023-01-18T19:07:51.215Z,82.27
2023-01-18T19:10:20.668Z,82.22
2023-01-18T19:12:54.340Z,82.27
2023-01-18T19:15:26.273Z,82.42
2023-01-18T19:17:54.442Z,81.87
2023-01-18T19:20:22.723Z,81.50
2023-01-18T19:22:52.089Z,82.24
2023-01-18T19:25:20.515Z,81.99
2023-01-18T19:27:48.457Z,82.55
2023-01-18T19:30:20.033Z,82.52
2023-01-18T19:32:49.056Z,82.78
2023-01-18T19:35:17.383Z,82.28
2023-01-18T19:37:46.181Z,82.67
2023-01-18T19:40:16.727Z,82.35
2023-01-18T19:42:47.925Z,82.78
2023-01-18T19:45:23.208Z,82.26
2023-01-18T19:47:55.526Z,82.26
2023-01-18T19:50:23.845Z,82.28
2023-01-18T19:52:51.976Z,82.37
2023-01-18T19:55:21.777Z,82.66
2023-01-18T19:57:49.887Z,82.75
2023-01-18T20:00:18.630Z,82.57
2023-01-18T20:02:46.732Z,81.83
2023-01-18T20:05:14.686Z,82.26
2023-01-18T20:07:42.624Z,82.30
2023-01-18T20:10:11.734Z,82.88
2023-01-18T20:12:40.988Z,82.88
2023-01-18T20:15:09.587Z,83.00
2023-01-18T20:17:38.832Z,82.43
2023-01-18T20:20:07.559Z,82.37
2023-01-18T20:22:35.472Z,82.33
2023-01-18T20:25:04.317Z,82.74
2023-01-18T20:27:32.265Z,83.02
2023-01-18T20:30:01.553Z,83.29
2023-01-18T20:32:29.564Z,83.21
2023-01-18T20:34:57.811Z,83.13
2023-01-18T20:37:26.124Z,83.63
2023-01-18T20:39:55.936Z,83.38
2023-01-18T20:42:23.828Z,83.46
2023-01-18T20:44:53.760Z,83.08
2023-01-18T20:47:23.024Z,83.59
2023-01-18T20:49:50.917Z,83.65
2023-01-18T20:52:18.817Z,83.42
2023-01-18T20:54:46.724Z,82.95
2023-01-18T20:57:14.674Z,82.87
2023-01-18T20:59:42.596Z,83.02
2023-01-18T21:02:11.376Z,83.31
2023-01-18T21:04:40.829Z,82.88
2023-01-18T21:07:08.779Z,83.03
2023-01-18T21:09:36.676Z,83.23
2023-01-18T21:12:04.865Z,82.64
2023-01-18T21:14:33.000Z,83.19
2023-01-18T21:17:00.853Z,82.35
2023-01-18T21:19:29.302Z,82.69
2023-01-18T21:21:58.710Z,83.05
2023-01-18T21:24:26.649Z,83.02
2023-01-18T21:26:54.656Z,82.46
2023-01-18T21:29:22.547Z,82.69
2023-01-18T21:31:50.674Z,82.52
2023-01-18T21:34:18.797Z,82.91
2023-01-18T21:36:46.838Z,83.18
2023-01-18T21:39:24.682Z,83.22
2023-01-18T21:42:10.515Z,83.95
2023-01-18T21:44:56.077Z,84.45
2023-01-18T21:47:24.480Z,85.11
2023-01-18T21:50:18.457Z,85.38
2023-01-18T21:53:04.328Z,85.29
2023-01-18T21:55:34.327Z,84.69
2023-01-18T21:58:19.540Z,84.08
2023-01-18T22:00:47.567Z,83.79
2023-01-18T22:03:18.328Z,83.99
2023-01-18T22:05:46.119Z,84.70
2023-01-18T22:08:14.035Z,84.12
2023-01-18T22:10:46.849Z,83.86
2023-01-18T22:13:14.780Z,84.44
2023-01-18T22:15:42.630Z,84.78
2023-01-18T22:18:10.428Z,84.84
2023-01-18T22:20:38.266Z,84.83
2023-01-18T22:23:06.138Z,84.25
2023-01-18T22:25:34.128Z,83.97
2023-01-18T22:28:03.724Z,84.09
2023-01-18T22:30:31.760Z,83.41
2023-01-18T22:32:59.669Z,83.73
2023-01-18T22:35:27.633Z,83.83
2023-01-18T22:37:56.038Z,83.93
2023-01-18T22:40:23.959Z,83.39
2023-01-18T22:42:52.079Z,83.88
2023-01-18T22:45:21.310Z,83.58
2023-01-18T22:47:49.288Z,83.84
2023-01-18T22:50:18.150Z,84.06
2023-01-18T22:52:45.959Z,83.66
2023-01-18T22:55:13.921Z,84.19
2023-01-18T22:57:42.713Z,84.31
2023-01-18T23:00:12.223Z,84.52
2023-01-18T23:02:41.462Z,84.59
2023-01-18T23:05:09.743Z,84.65
2023-01-18T23:07:38.538Z,85.03
2023-01-18T23:10:06.781Z,85.27
2023-01-18T23:12:37.732Z,84.44
2023-01-18T23:15:23.870Z,84.86
2023-01-18T23:17:53.089Z,84.43
2023-01-18T23:20:23.237Z,84.64
2023-01-18T23:22:51.316Z,84.52
2023-01-18T23:25:19.431Z,84.48
2023-01-18T23:27:47.423Z,84.92
2023-01-18T23:30:16.328Z,84.61
2023-01-18T23:32:44.221Z,84.29
2023-01-18T23:35:13.748Z,84.70
2023-01-18T23:37:41.578Z,84.48
2023-01-18T23:40:30.822Z,83.84
2023-01-18T23:43:16.232Z,84.21
2023-01-18T23:46:01.496Z,84.49
2023-01-18T23:48:46.914Z,84.31
2023-01-18T23:51:34.141Z,84.24
2023-01-18T23:54:14.016Z,84.08
2023-01-18T23:56:41.938Z,84.33
2023-01-18T23:59:10.085Z,84.08
